This is the latest recevied weather packets stored in our database for station/object K3HM. If no packets are shown the sender has not sent any weather packets the latest 1 day(s).
| Time | Temp. | Humidity | Pressure | Rain* | Wind** | Luminosity | Snow |
|---|---|---|---|---|---|---|---|
| 1778036748 | 13.89° C | 71% | 1011.2 hPa | 0 mm | 0 m/s | 0 W/m² | - |
| 1778036445 | 13.89° C | 69% | 1011.2 hPa | 0 mm | 0 m/s | 0 W/m² | - |
| 1778036142 | 13.89° C | 72% | 1011.2 hPa | 0 mm | 0.45 m/s, 1° | 0 W/m² | - |
| 1778035838 | 13.33° C | 72% | 1011.1 hPa | 0 mm | 0.45 m/s, 1° | 0 W/m² | - |
| 1778035535 | 13.33° C | 75% | 1011.1 hPa | 0 mm | 0 m/s | 0 W/m² | - |
| 1778035232 | 13.33° C | 73% | 1011.2 hPa | 0 mm | 0 m/s | 0 W/m² | - |
| 1778034927 | 13.33° C | 73% | 1011.2 hPa | 0 mm | 0 m/s | 0 W/m² | - |
| 1778034635 | 13.89° C | 75% | 1011.2 hPa | 0 mm | 0 m/s | 0 W/m² | - |
| 1778034323 | 14.44° C | 71% | 1011.3 hPa | 0 mm | 0 m/s | 0 W/m² | - |
| 1778034020 | 14.44° C | 66% | 1011.4 hPa | 0 mm | 0 m/s | 0 W/m² | - |
| 1778033718 | 13.89° C | 67% | 1011.4 hPa | 0 mm | 0.45 m/s, 1° | 0 W/m² | - |
| 1778033415 | 13.33° C | 70% | 1011.4 hPa | 0 mm | 0.45 m/s, 1° | 0 W/m² | - |
| 1778033112 | 13.33° C | 73% | 1011.1 hPa | 0 mm | 0 m/s | 0 W/m² | - |
| 1778032810 | 13.33° C | 73% | 1011.3 hPa | 0 mm | 0 m/s | 0 W/m² | - |
| 1778032507 | 13.33° C | 71% | 1011.4 hPa | 0 mm | 0 m/s | 0 W/m² | - |
| 1778032204 | 13.33° C | 69% | 1011.4 hPa | 0 mm | 0 m/s | 0 W/m² | - |
| 1778031901 | 13.89° C | 68% | 1011.5 hPa | 0 mm | 0 m/s | 0 W/m² | - |
| 1778031596 | 13.89° C | 68% | 1011.4 hPa | 0 mm | 0 m/s | 0 W/m² | - |
| 1778031295 | 13.89° C | 67% | 1011.4 hPa | 0 mm | 0 m/s | 0 W/m² | - |
| 1778030990 | 14.44° C | 65% | 1011.4 hPa | 0 mm | 0 m/s | 0 W/m² | - |
| 1778030687 | 14.44° C | 64% | 1011.2 hPa | 0 mm | 0 m/s | 0 W/m² | - |
| 1778030384 | 14.44° C | 63% | 1011.1 hPa | 0 mm | 0 m/s | 0 W/m² | - |
| 1778030082 | 14.44° C | 65% | 1011.3 hPa | 0 mm | 0 m/s | 0 W/m² | - |
| 1778029778 | 15° C | 65% | 1011.3 hPa | 0 mm | 0 m/s | 0 W/m² | - |
| 1778029477 | 15.56° C | 62% | 1011.5 hPa | 0 mm | 0 m/s | 0 W/m² | - |
* Rain latest hour (hover to see other rain measurements)
** Current wind speed in m/s (hover to see current wind gust speed)